Time;durP1;ratioP1;P1;durP2;ratioP2;P2;SDS_P1;SDS_P2;PMS_P1;PMS_P2;Temp;Humidity;BMP_temperature;BMP_pressure;BME280_temperature;BME280_humidity;BME280_pressure;Samples;Min_cycle;Max_cycle;Signal;HPM_P1;HPM_P2
2022/09/04 00:00:09;;;;;;;;;19.33;17.33;;;;;;;;4988216;27;45343;-69
2022/09/04 00:02:47;;;;;;;;;23.00;20.00;;;;;;;;4993403;27;45359;-69
2022/09/04 00:05:21;;;;;;;;;18.00;15.67;;;;;;;;4984429;27;46093;-69
2022/09/04 00:07:58;;;;;;;;;17.33;17.00;;;;;;;;4984409;27;45290;-70
2022/09/04 00:10:30;;;;;;;;;20.33;18.33;;;;;;;;4991048;27;45298;-69
2022/09/04 00:13:03;;;;;;;;;19.00;19.00;;;;;;;;4984140;27;45897;-70
2022/09/04 00:15:33;;;;;;;;;17.00;15.67;;;;;;;;4987911;28;47207;-69
2022/09/04 00:18:02;;;;;;;;;16.33;16.00;;;;;;;;4986295;28;45438;-70
2022/09/04 00:20:31;;;;;;;;;13.33;13.00;;;;;;;;4986950;28;45992;-70
2022/09/04 00:22:56;;;;;;;;;14.00;12.67;;;;;;;;4989558;27;45481;-69
2022/09/04 00:25:31;;;;;;;;;10.67;10.00;;;;;;;;4987907;27;45418;-71
2022/09/04 00:28:05;;;;;;;;;13.00;11.00;;;;;;;;4991794;27;45261;-69
2022/09/04 00:30:32;;;;;;;;;14.00;14.00;;;;;;;;4984277;27;45173;-72
2022/09/04 00:33:22;;;;;;;;;12.33;12.00;;;;;;;;4990707;27;45463;-69
2022/09/04 00:35:53;;;;;;;;;14.00;13.00;;;;;;;;4989689;27;46011;-69
2022/09/04 00:38:24;;;;;;;;;15.00;14.33;;;;;;;;4979761;28;45293;-69
2022/09/04 00:40:56;;;;;;;;;13.67;12.00;;;;;;;;4981777;27;45446;-70
2022/09/04 00:43:21;;;;;;;;;14.33;14.33;;;;;;;;4984033;27;45442;-69
2022/09/04 00:45:49;;;;;;;;;14.00;13.00;;;;;;;;4982477;28;45713;-69
2022/09/04 00:48:20;;;;;;;;;12.00;12.00;;;;;;;;4984167;27;45365;-69
2022/09/04 00:51:04;;;;;;;;;12.00;11.33;;;;;;;;4984844;27;45535;-69
2022/09/04 00:53:35;;;;;;;;;14.67;14.67;;;;;;;;4983794;27;45474;-69
2022/09/04 00:56:00;;;;;;;;;16.00;14.67;;;;;;;;4987434;28;46309;-69
2022/09/04 00:58:25;;;;;;;;;10.33;10.33;;;;;;;;4987424;28;45316;-69
2022/09/04 01:00:52;;;;;;;;;11.33;11.00;;;;;;;;4993927;27;45236;-69
2022/09/04 01:03:33;;;;;;;;;10.33;10.33;;;;;;;;4988598;27;45433;-69
2022/09/04 01:06:20;;;;;;;;;11.67;11.67;;;;;;;;4993520;28;46548;-69
2022/09/04 01:08:54;;;;;;;;;14.33;10.67;;;;;;;;4988239;28;45223;-69
2022/09/04 01:11:20;;;;;;;;;8.67;8.67;;;;;;;;4987433;27;45335;-69
2022/09/04 01:14:00;;;;;;;;;14.67;11.00;;;;;;;;4986917;27;45366;-69
2022/09/04 01:16:44;;;;;;;;;12.67;10.33;;;;;;;;4985797;28;46419;-69
2022/09/04 01:19:23;;;;;;;;;10.67;10.00;;;;;;;;4983412;27;45418;-69
2022/09/04 01:22:08;;;;;;;;;9.67;9.00;;;;;;;;4992569;28;45442;-69
2022/09/04 01:24:36;;;;;;;;;9.33;9.33;;;;;;;;4982402;27;45498;-69
2022/09/04 01:27:04;;;;;;;;;11.00;8.00;;;;;;;;4995608;28;46217;-69
2022/09/04 01:29:48;;;;;;;;;9.67;8.67;;;;;;;;4985313;27;45359;-69
2022/09/04 01:32:27;;;;;;;;;10.00;9.00;;;;;;;;4986565;27;45397;-69
2022/09/04 01:35:02;;;;;;;;;9.00;9.00;;;;;;;;5008257;27;45439;-69
2022/09/04 01:37:28;;;;;;;;;6.67;6.67;;;;;;;;4982875;27;45567;-69
2022/09/04 01:40:01;;;;;;;;;4.25;4.25;;;;;;;;4978720;28;45266;-69
2022/09/04 01:42:33;;;;;;;;;6.00;6.00;;;;;;;;4991012;28;45220;-69
2022/09/04 01:44:58;;;;;;;;;7.00;5.67;;;;;;;;4985494;28;45339;-69
2022/09/04 01:47:47;;;;;;;;;6.00;6.00;;;;;;;;4977355;28;46623;-69
2022/09/04 01:50:16;;;;;;;;;5.67;5.67;;;;;;;;4979504;28;45414;-69
2022/09/04 01:52:47;;;;;;;;;5.67;5.67;;;;;;;;4980398;27;45511;-69
2022/09/04 01:55:12;;;;;;;;;7.00;6.00;;;;;;;;4987861;28;47001;-69
2022/09/04 01:57:43;;;;;;;;;6.33;5.00;;;;;;;;4983335;28;46384;-69
2022/09/04 02:00:24;;;;;;;;;5.67;5.67;;;;;;;;4984960;28;45434;-69
2022/09/04 02:03:08;;;;;;;;;7.33;4.67;;;;;;;;4986034;28;45352;-69
2022/09/04 02:05:34;;;;;;;;;5.33;5.33;;;;;;;;4988290;27;45397;-69
2022/09/04 02:08:01;;;;;;;;;6.00;6.00;;;;;;;;4989738;28;47130;-69
2022/09/04 02:10:45;;;;;;;;;7.00;6.67;;;;;;;;4990545;27;45406;-69
2022/09/04 02:13:13;;;;;;;;;5.67;4.67;;;;;;;;4985478;28;45445;-69
2022/09/04 02:15:42;;;;;;;;;7.67;6.33;;;;;;;;4983861;27;45413;-69
2022/09/04 02:18:30;;;;;;;;;6.67;6.67;;;;;;;;4989129;28;45448;-69
2022/09/04 02:20:58;;;;;;;;;5.67;5.67;;;;;;;;4982608;28;45284;-69
2022/09/04 02:23:27;;;;;;;;;6.00;6.00;;;;;;;;4987702;28;45435;-69
2022/09/04 02:25:52;;;;;;;;;6.00;4.67;;;;;;;;4987192;28;45675;-69
2022/09/04 02:28:35;;;;;;;;;8.67;7.33;;;;;;;;4988406;27;45362;-69
2022/09/04 02:31:09;;;;;;;;;6.67;5.67;;;;;;;;4977597;28;45344;-69
2022/09/04 02:33:44;;;;;;;;;6.67;6.33;;;;;;;;4987481;27;45386;-69
2022/09/04 02:36:14;;;;;;;;;5.67;5.67;;;;;;;;4981245;28;45252;-69
2022/09/04 02:38:50;;;;;;;;;8.33;8.00;;;;;;;;4987888;28;45508;-70
2022/09/04 02:41:21;;;;;;;;;6.67;6.00;;;;;;;;4980142;27;45290;-69
2022/09/04 02:43:56;;;;;;;;;5.33;5.33;;;;;;;;4981077;28;46877;-69
2022/09/04 02:46:40;;;;;;;;;6.33;6.33;;;;;;;;4980107;27;45287;-69
2022/09/04 02:49:12;;;;;;;;;5.00;5.00;;;;;;;;4986983;27;45521;-68
2022/09/04 02:51:46;;;;;;;;;6.00;6.00;;;;;;;;4990788;27;45377;-69
2022/09/04 02:54:25;;;;;;;;;6.00;6.00;;;;;;;;4982137;28;45685;-69
2022/09/04 02:56:59;;;;;;;;;6.33;6.33;;;;;;;;4981882;27;45339;-69
2022/09/04 02:59:34;;;;;;;;;5.33;5.33;;;;;;;;4986984;28;48301;-69
2022/09/04 03:02:01;;;;;;;;;8.33;6.00;;;;;;;;4986779;28;45490;-69
2022/09/04 03:04:26;;;;;;;;;6.00;6.00;;;;;;;;4986989;28;45405;-69
2022/09/04 03:06:55;;;;;;;;;7.33;7.00;;;;;;;;4991461;27;45296;-69
2022/09/04 03:09:24;;;;;;;;;1.67;1.67;;;;;;;;4980132;27;46192;-69
2022/09/04 03:11:49;;;;;;;;;6.00;6.00;;;;;;;;4980365;28;45236;-69
2022/09/04 03:14:23;;;;;;;;;5.67;5.67;;;;;;;;4982102;27;45237;-69
2022/09/04 03:16:58;;;;;;;;;5.33;4.33;;;;;;;;4984127;27;45340;-69
2022/09/04 03:19:42;;;;;;;;;5.00;5.00;;;;;;;;4982746;28;45331;-69
2022/09/04 03:22:10;;;;;;;;;6.00;6.00;;;;;;;;4984998;27;45343;-69
2022/09/04 03:24:58;;;;;;;;;4.67;4.67;;;;;;;;4984934;28;45201;-69
2022/09/04 03:27:25;;;;;;;;;7.00;5.33;;;;;;;;4982114;28;45564;-69
2022/09/04 03:30:03;;;;;;;;;5.00;5.00;;;;;;;;4980966;28;45445;-69
2022/09/04 03:32:31;;;;;;;;;6.33;6.33;;;;;;;;4988492;27;45497;-69
2022/09/04 03:34:59;;;;;;;;;5.67;4.00;;;;;;;;4989362;27;45575;-69
2022/09/04 03:37:24;;;;;;;;;5.00;5.00;;;;;;;;4996585;27;45457;-69
2022/09/04 03:40:08;;;;;;;;;4.67;4.67;;;;;;;;4984555;27;46307;-69
2022/09/04 03:42:46;;;;;;;;;8.33;4.67;;;;;;;;4983817;27;45437;-69
2022/09/04 03:45:11;;;;;;;;;5.67;4.67;;;;;;;;4985837;27;45458;-69
2022/09/04 03:47:55;;;;;;;;;6.00;6.00;;;;;;;;4981050;27;45432;-69
2022/09/04 03:50:28;;;;;;;;;6.00;5.67;;;;;;;;4983595;27;45422;-69
2022/09/04 03:53:04;;;;;;;;;8.33;5.33;;;;;;;;4990851;27;45513;-69
2022/09/04 03:55:32;;;;;;;;;6.33;6.00;;;;;;;;4986944;28;45342;-69
2022/09/04 03:57:58;;;;;;;;;6.67;6.67;;;;;;;;4982654;28;45241;-69
2022/09/04 04:00:23;;;;;;;;;4.00;4.00;;;;;;;;4987443;28;46451;-69
2022/09/04 04:03:07;;;;;;;;;8.33;7.00;;;;;;;;4986569;28;45206;-69
2022/09/04 04:05:35;;;;;;;;;8.33;6.33;;;;;;;;4990148;27;45437;-69
2022/09/04 04:08:19;;;;;;;;;4.33;4.33;;;;;;;;4993311;27;45312;-69
2022/09/04 04:11:04;;;;;;;;;8.00;6.67;;;;;;;;4987531;27;46352;-69
2022/09/04 04:13:48;;;;;;;;;5.00;5.00;;;;;;;;4987475;27;45436;-69
2022/09/04 04:16:32;;;;;;;;;5.00;5.00;;;;;;;;4985844;27;45323;-69
2022/09/04 04:19:05;;;;;;;;;6.67;6.67;;;;;;;;4982945;27;45384;-69
2022/09/04 04:21:55;;;;;;;;;4.67;4.67;;;;;;;;4985841;28;45993;-69
2022/09/04 04:24:27;;;;;;;;;5.33;5.00;;;;;;;;4984526;28;45363;-69
2022/09/04 04:27:12;;;;;;;;;9.67;6.33;;;;;;;;4985454;28;45237;-69
2022/09/04 04:29:54;;;;;;;;;5.00;5.00;;;;;;;;4980479;28;45436;-69
2022/09/04 04:32:38;;;;;;;;;7.67;6.00;;;;;;;;4988658;28;46473;-69
2022/09/04 04:35:10;;;;;;;;;9.00;6.00;;;;;;;;5001196;27;45274;-69
2022/09/04 04:37:58;;;;;;;;;7.67;7.00;;;;;;;;4990171;27;45224;-69
2022/09/04 04:40:32;;;;;;;;;6.00;5.67;;;;;;;;4985497;27;45487;-69
2022/09/04 04:43:08;;;;;;;;;6.33;6.33;;;;;;;;4977291;28;45311;-69
2022/09/04 04:45:49;;;;;;;;;8.33;7.00;;;;;;;;4982924;28;45482;-69
2022/09/04 04:48:35;;;;;;;;;7.33;7.33;;;;;;;;4978619;27;45307;-69
2022/09/04 04:51:19;;;;;;;;;5.33;5.33;;;;;;;;4993211;27;45457;-69
2022/09/04 04:54:03;;;;;;;;;5.33;5.33;;;;;;;;4981438;28;45594;-69
2022/09/04 04:56:32;;;;;;;;;7.67;6.67;;;;;;;;4985155;27;45424;-69
2022/09/04 04:59:06;;;;;;;;;6.33;6.00;;;;;;;;4986456;27;45403;-69
2022/09/04 05:01:35;;;;;;;;;9.00;8.00;;;;;;;;4987244;27;45415;-69
2022/09/04 05:04:16;;;;;;;;;8.67;6.67;;;;;;;;4989362;27;46447;-69
2022/09/04 05:06:48;;;;;;;;;9.67;8.00;;;;;;;;4991138;27;45540;-69
2022/09/04 05:09:20;;;;;;;;;8.33;8.00;;;;;;;;4984410;27;45269;-69
2022/09/04 05:11:52;;;;;;;;;8.67;8.67;;;;;;;;4988923;28;45339;-69
2022/09/04 05:14:24;;;;;;;;;10.33;7.33;;;;;;;;4989484;28;46456;-69
2022/09/04 05:17:04;;;;;;;;;7.67;7.67;;;;;;;;4985178;27;45358;-69
2022/09/04 05:19:39;;;;;;;;;8.67;7.67;;;;;;;;4984836;27;45660;-69
2022/09/04 05:22:07;;;;;;;;;7.33;7.33;;;;;;;;4985022;28;45284;-69
2022/09/04 05:24:32;;;;;;;;;8.00;7.00;;;;;;;;4978713;27;45406;-69
2022/09/04 05:27:27;;;;;;;;;10.67;8.67;;;;;;;;4983855;27;45254;-69
2022/09/04 05:29:58;;;;;;;;;8.00;5.67;;;;;;;;4974526;28;45265;-69
2022/09/04 05:32:23;;;;;;;;;8.00;7.00;;;;;;;;4986647;28;45454;-69
2022/09/04 05:35:07;;;;;;;;;8.67;8.67;;;;;;;;4995889;27;46073;-69
2022/09/04 05:37:39;;;;;;;;;11.00;8.00;;;;;;;;4989062;28;45386;-69
2022/09/04 05:40:11;;;;;;;;;10.00;8.67;;;;;;;;4984110;27;45361;-69
2022/09/04 05:42:52;;;;;;;;;6.00;6.00;;;;;;;;4978567;27;45455;-69
2022/09/04 05:45:28;;;;;;;;;7.67;7.67;;;;;;;;4983637;28;45524;-69
2022/09/04 05:47:53;;;;;;;;;8.00;7.00;;;;;;;;4978585;28;45289;-69
2022/09/04 05:50:37;;;;;;;;;7.25;6.75;;;;;;;;4981777;28;45450;-69
2022/09/04 05:53:05;;;;;;;;;8.67;7.67;;;;;;;;4982637;27;45357;-69
2022/09/04 05:55:48;;;;;;;;;8.33;8.33;;;;;;;;4985577;28;45333;-70
2022/09/04 05:58:20;;;;;;;;;11.33;9.33;;;;;;;;4983733;28;45363;-68
2022/09/04 06:01:03;;;;;;;;;9.33;6.67;;;;;;;;4990229;28;45271;-68
2022/09/04 06:03:46;;;;;;;;;8.00;7.33;;;;;;;;4984629;27;45336;-68
2022/09/04 06:06:24;;;;;;;;;5.00;5.00;;;;;;;;4976792;28;46701;-68
2022/09/04 06:09:07;;;;;;;;;8.33;7.33;;;;;;;;4986451;27;45469;-68
2022/09/04 06:11:56;;;;;;;;;5.67;5.67;;;;;;;;4988310;27;45299;-68
2022/09/04 06:14:30;;;;;;;;;7.67;5.67;;;;;;;;4986932;28;45617;-68
2022/09/04 06:17:09;;;;;;;;;8.67;7.67;;;;;;;;4982323;28;45356;-69
2022/09/04 06:19:43;;;;;;;;;5.00;5.00;;;;;;;;4981074;27;45473;-69
2022/09/04 06:22:37;;;;;;;;;8.00;6.00;;;;;;;;4988197;27;45553;-69
2022/09/04 06:25:03;;;;;;;;;5.67;5.00;;;;;;;;4934793;28;46459;-68
2022/09/04 06:27:34;;;;;;;;;7.00;6.33;;;;;;;;4989959;28;45460;-69
2022/09/04 06:30:05;;;;;;;;;6.67;5.00;;;;;;;;4978372;28;45383;-69
2022/09/04 06:32:49;;;;;;;;;10.00;8.00;;;;;;;;4985205;28;45774;-69
2022/09/04 06:35:14;;;;;;;;;8.67;7.67;;;;;;;;4993429;27;45404;-69
2022/09/04 06:37:56;;;;;;;;;7.67;7.67;;;;;;;;4989421;27;46213;-68
2022/09/04 06:40:21;;;;;;;;;6.67;6.67;;;;;;;;4989184;27;45458;-68
2022/09/04 06:42:53;;;;;;;;;10.00;9.00;;;;;;;;4986890;27;45292;-70
2022/09/04 06:45:28;;;;;;;;;8.33;7.33;;;;;;;;4985458;27;45402;-71
2022/09/04 06:47:59;;;;;;;;;8.33;7.33;;;;;;;;4981030;27;46252;-71
2022/09/04 06:50:31;;;;;;;;;7.67;7.67;;;;;;;;4996270;27;46011;-71
2022/09/04 06:53:13;;;;;;;;;8.00;8.00;;;;;;;;4982272;27;45330;-70
2022/09/04 06:55:38;;;;;;;;;9.33;9.33;;;;;;;;4992610;28;47023;-70
2022/09/04 06:58:22;;;;;;;;;8.33;8.33;;;;;;;;4985195;27;45342;-70
2022/09/04 07:00:52;;;;;;;;;8.33;8.33;;;;;;;;4991956;27;45414;-71
2022/09/04 07:03:26;;;;;;;;;9.00;9.00;;;;;;;;4986546;27;45441;-71
2022/09/04 07:05:51;;;;;;;;;9.33;8.00;;;;;;;;4985613;27;45574;-70
2022/09/04 07:08:34;;;;;;;;;7.00;7.00;;;;;;;;4989267;27;45519;-70
2022/09/04 07:11:11;;;;;;;;;11.33;10.33;;;;;;;;4990937;28;45568;-70
2022/09/04 07:13:43;;;;;;;;;6.00;5.00;;;;;;;;4985388;27;45454;-70
2022/09/04 07:16:19;;;;;;;;;7.00;7.00;;;;;;;;4983092;28;45341;-70
2022/09/04 07:18:47;;;;;;;;;10.33;8.00;;;;;;;;4983753;27;45350;-71
2022/09/04 07:21:25;;;;;;;;;9.67;7.67;;;;;;;;4987072;27;45237;-70
2022/09/04 07:24:01;;;;;;;;;9.00;8.67;;;;;;;;4989092;28;45272;-70
2022/09/04 07:26:40;;;;;;;;;7.67;7.67;;;;;;;;4997389;27;45429;-70
2022/09/04 07:29:28;;;;;;;;;8.33;6.33;;;;;;;;4986133;27;46252;-70
2022/09/04 07:32:00;;;;;;;;;8.00;7.00;;;;;;;;4984203;28;45369;-70
2022/09/04 07:34:36;;;;;;;;;7.33;6.33;;;;;;;;5011105;27;45479;-70
2022/09/04 07:37:22;;;;;;;;;5.67;5.67;;;;;;;;4979281;28;45405;-70
2022/09/04 07:39:52;;;;;;;;;5.00;5.00;;;;;;;;4985623;27;45323;-69
2022/09/04 07:42:32;;;;;;;;;7.33;7.33;;;;;;;;4991807;27;45214;-70
2022/09/04 07:45:08;;;;;;;;;6.33;6.33;;;;;;;;4982352;28;45726;-70
2022/09/04 07:47:34;;;;;;;;;5.00;5.00;;;;;;;;4984809;28;45476;-69
2022/09/04 07:50:08;;;;;;;;;5.00;5.00;;;;;;;;4985126;27;45894;-69
2022/09/04 07:52:40;;;;;;;;;7.00;5.67;;;;;;;;4987935;28;45485;-70
2022/09/04 07:55:08;;;;;;;;;5.00;5.00;;;;;;;;4986243;27;45224;-70
2022/09/04 07:57:48;;;;;;;;;6.00;6.00;;;;;;;;4990641;27;45497;-70
2022/09/04 08:00:16;;;;;;;;;4.33;4.33;;;;;;;;4989323;27;45366;-71
2022/09/04 08:02:48;;;;;;;;;4.33;4.33;;;;;;;;4994088;27;45561;-69
2022/09/04 08:05:13;;;;;;;;;6.00;6.00;;;;;;;;4983291;27;45296;-70
2022/09/04 08:07:38;;;;;;;;;5.00;5.00;;;;;;;;4991008;27;45391;-70
2022/09/04 08:10:21;;;;;;;;;5.33;5.33;;;;;;;;4990299;27;47958;-69
2022/09/04 08:12:55;;;;;;;;;8.00;7.00;;;;;;;;4983431;27;45425;-70
2022/09/04 08:15:53;;;;;;;;;7.33;4.67;;;;;;;;4992247;28;45448;-70
2022/09/04 08:18:44;;;;;;;;;5.00;5.00;;;;;;;;4977818;28;46303;-70
2022/09/04 08:21:34;;;;;;;;;4.00;4.00;;;;;;;;4977616;28;45360;-70
2022/09/04 08:24:02;;;;;;;;;4.33;4.33;;;;;;;;4984453;27;45272;-70
2022/09/04 08:26:36;;;;;;;;;6.00;6.00;;;;;;;;4980966;28;45421;-70
2022/09/04 08:29:13;;;;;;;;;7.33;5.33;;;;;;;;4986829;27;45532;-71
2022/09/04 08:31:41;;;;;;;;;5.00;5.00;;;;;;;;4982229;27;46219;-71
2022/09/04 08:34:09;;;;;;;;;5.67;5.67;;;;;;;;4977645;27;45633;-70
2022/09/04 08:36:49;;;;;;;;;6.00;6.00;;;;;;;;4979643;27;45345;-70
2022/09/04 08:39:15;;;;;;;;;5.00;5.00;;;;;;;;4983306;27;46082;-70
2022/09/04 08:41:58;;;;;;;;;6.00;6.00;;;;;;;;4979210;27;45355;-70
2022/09/04 08:44:26;;;;;;;;;6.75;6.25;;;;;;;;4981128;27;45484;-70
2022/09/04 08:47:03;;;;;;;;;6.25;5.00;;;;;;;;4981960;27;45376;-70
2022/09/04 08:49:47;;;;;;;;;5.75;5.75;;;;;;;;4984681;27;45722;-70
2022/09/04 08:52:17;;;;;;;;;7.00;7.00;;;;;;;;4983519;28;45358;-71
2022/09/04 08:54:47;;;;;;;;;7.50;6.50;;;;;;;;4985957;27;45383;-71
2022/09/04 08:57:31;;;;;;;;;6.00;4.75;;;;;;;;4988333;28;45387;-71
2022/09/04 09:00:14;;;;;;;;;8.75;5.00;;;;;;;;4989413;27;45627;-71
2022/09/04 09:02:39;;;;;;;;;3.75;3.00;;;;;;;;4979620;27;45559;-71
2022/09/04 09:05:24;;;;;;;;;4.00;4.00;;;;;;;;4984129;27;45569;-70
2022/09/04 09:07:49;;;;;;;;;3.00;3.00;;;;;;;;4986162;27;45487;-70
2022/09/04 09:10:34;;;;;;;;;4.00;4.00;;;;;;;;4978656;28;45433;-70
2022/09/04 09:13:18;;;;;;;;;4.00;4.00;;;;;;;;4980000;27;46087;-70
2022/09/04 09:15:55;;;;;;;;;3.00;3.00;;;;;;;;4985512;27;45478;-71
2022/09/04 09:18:26;;;;;;;;;3.00;3.00;;;;;;;;4988341;27;45483;-70
2022/09/04 09:20:55;;;;;;;;;3.75;3.75;;;;;;;;4982446;27;45620;-70
2022/09/04 09:23:33;;;;;;;;;2.50;0.75;;;;;;;;4983059;28;45544;-71
2022/09/04 09:26:04;;;;;;;;;3.20;2.00;;;;;;;;4977055;28;45277;-70
2022/09/04 09:28:42;;;;;;;;;6.50;4.75;;;;;;;;4982576;27;45541;-69
2022/09/04 09:31:20;;;;;;;;;2.50;2.00;;;;;;;;4985692;28;45547;-71
2022/09/04 09:34:05;;;;;;;;;5.20;2.60;;;;;;;;4994705;27;45489;-69
2022/09/04 09:36:33;;;;;;;;;3.80;3.80;;;;;;;;4982756;27;45512;-70
2022/09/04 09:38:58;;;;;;;;;4.00;4.00;;;;;;;;4987842;28;45470;-70
2022/09/04 09:41:36;;;;;;;;;4.00;2.00;;;;;;;;4986559;27;45303;-70
2022/09/04 09:44:20;;;;;;;;;3.80;3.80;;;;;;;;4988286;27;45529;-70
2022/09/04 09:47:04;;;;;;;;;2.80;2.80;;;;;;;;4977378;27;45462;-69
2022/09/04 09:49:48;;;;;;;;;3.00;3.00;;;;;;;;4983727;28;45419;-71
2022/09/04 09:52:22;;;;;;;;;3.40;3.40;;;;;;;;4978851;27;45371;-70
2022/09/04 09:54:47;;;;;;;;;3.40;2.40;;;;;;;;4982922;27;45377;-69
2022/09/04 09:57:31;;;;;;;;;5.75;2.75;;;;;;;;4981547;28;45394;-70
2022/09/04 10:00:06;;;;;;;;;2.60;2.20;;;;;;;;4983461;28;45306;-70
2022/09/04 10:02:34;;;;;;;;;3.20;3.20;;;;;;;;4986913;28;45439;-70
2022/09/04 10:05:18;;;;;;;;;2.60;2.20;;;;;;;;4989522;27;45390;-71
2022/09/04 10:08:02;;;;;;;;;3.20;3.20;;;;;;;;4995360;27;45341;-70
2022/09/04 10:11:05;;;;;;;;;2.60;2.60;;;;;;;;4981641;27;45729;-70
2022/09/04 10:13:49;;;;;;;;;4.20;3.80;;;;;;;;4978876;28;45562;-70
2022/09/04 10:16:17;;;;;;;;;4.80;3.00;;;;;;;;4973958;28;45669;-70
2022/09/04 10:18:58;;;;;;;;;3.20;3.20;;;;;;;;4977311;28;45462;-70
2022/09/04 10:21:26;;;;;;;;;2.60;2.60;;;;;;;;4978829;28;45335;-70
2022/09/04 10:23:55;;;;;;;;;3.60;3.60;;;;;;;;4978376;28;45659;-70
2022/09/04 10:26:39;;;;;;;;;2.20;2.20;;;;;;;;4978898;28;45629;-70
2022/09/04 10:29:24;;;;;;;;;4.00;3.00;;;;;;;;4983542;28;45417;-70
2022/09/04 10:31:55;;;;;;;;;1.40;1.40;;;;;;;;4984664;28;45532;-70
2022/09/04 10:34:24;;;;;;;;;3.00;2.00;;;;;;;;5000786;27;47042;-70
2022/09/04 10:37:18;;;;;;;;;4.20;3.60;;;;;;;;4977753;28;45504;-71
2022/09/04 10:42:59;;;;;;;;;3.00;3.00;;;;;;;;4936201;28;45562;-71
2022/09/04 10:46:05;;;;;;;;;2.20;1.80;;;;;;;;4980878;27;46561;-71
2022/09/04 10:48:53;;;;;;;;;5.40;4.20;;;;;;;;4951177;28;46026;-71
2022/09/04 10:51:42;;;;;;;;;2.00;2.00;;;;;;;;4949378;28;45360;-70
2022/09/04 10:54:23;;;;;;;;;1.60;1.60;;;;;;;;4973259;28;45504;-70
2022/09/04 10:56:51;;;;;;;;;2.20;2.20;;;;;;;;4981859;27;45450;-70
2022/09/04 10:59:17;;;;;;;;;3.20;2.20;;;;;;;;4988168;28;45315;-71
2022/09/04 11:01:46;;;;;;;;;17.25;16.50;;;;;;;;4988008;27;45590;-71
2022/09/04 11:04:12;;;;;;;;;2.80;2.80;;;;;;;;4985059;28;45373;-71
2022/09/04 11:06:37;;;;;;;;;5.00;4.20;;;;;;;;4992409;27;45324;-71
2022/09/04 11:09:03;;;;;;;;;5.75;5.75;;;;;;;;4983734;28;45421;-70
2022/09/04 11:11:39;;;;;;;;;2.25;2.25;;;;;;;;4978596;27;45364;-69
2022/09/04 11:14:16;;;;;;;;;6.00;2.80;;;;;;;;4980017;28;45407;-70
2022/09/04 11:16:58;;;;;;;;;5.40;3.00;;;;;;;;4982294;27;45434;-70
2022/09/04 11:19:32;;;;;;;;;5.40;5.40;;;;;;;;4981608;28;46771;-70
2022/09/04 11:22:18;;;;;;;;;4.40;4.40;;;;;;;;4981587;27;45453;-70
2022/09/04 11:25:03;;;;;;;;;3.40;3.40;;;;;;;;4979646;27;45343;-71
2022/09/04 11:27:48;;;;;;;;;4.60;3.60;;;;;;;;4991462;28;45414;-72
2022/09/04 11:30:28;;;;;;;;;3.20;3.20;;;;;;;;4976626;28;45252;-71
2022/09/04 11:33:12;;;;;;;;;3.80;3.20;;;;;;;;4980900;28;45378;-71
2022/09/04 11:35:54;;;;;;;;;3.60;3.00;;;;;;;;4996606;27;45574;-71
2022/09/04 11:38:42;;;;;;;;;4.80;4.00;;;;;;;;4989378;27;45311;-72
2022/09/04 11:41:27;;;;;;;;;4.80;3.00;;;;;;;;4985872;28;45481;-72
2022/09/04 11:43:53;;;;;;;;;3.40;3.40;;;;;;;;4985383;27;45465;-72
2022/09/04 11:46:18;;;;;;;;;3.75;3.75;;;;;;;;4985606;27;45308;-72
2022/09/04 11:48:46;;;;;;;;;3.50;3.50;;;;;;;;4983238;28;45323;-72
2022/09/04 11:51:39;;;;;;;;;13.60;11.60;;;;;;;;4996182;27;45355;-72
2022/09/04 11:54:04;;;;;;;;;7.80;6.80;;;;;;;;4986214;28;45331;-72
2022/09/04 11:56:48;;;;;;;;;5.50;4.00;;;;;;;;4978764;28;45377;-72
2022/09/04 11:59:22;;;;;;;;;4.60;4.60;;;;;;;;4980433;27;46213;-71
2022/09/04 12:02:06;;;;;;;;;2.80;2.80;;;;;;;;4982284;27;45519;-72
2022/09/04 12:04:50;;;;;;;;;4.40;3.20;;;;;;;;4981298;28;45312;-72
2022/09/04 12:07:34;;;;;;;;;3.00;3.00;;;;;;;;4983389;27;45406;-72
2022/09/04 12:10:13;;;;;;;;;4.00;4.00;;;;;;;;4984432;27;45277;-72
2022/09/04 12:12:44;;;;;;;;;3.20;3.20;;;;;;;;4993385;28;45417;-72
2022/09/04 12:15:09;;;;;;;;;2.80;2.80;;;;;;;;4986498;28;45367;-72
2022/09/04 12:17:55;;;;;;;;;4.75;3.75;;;;;;;;4987102;28;45423;-72
2022/09/04 12:20:23;;;;;;;;;3.60;3.60;;;;;;;;4977366;27;45522;-72
2022/09/04 12:23:03;;;;;;;;;5.20;4.40;;;;;;;;4980624;28;45371;-72
2022/09/04 12:25:31;;;;;;;;;4.20;4.20;;;;;;;;4986362;28;45359;-72
2022/09/04 12:28:08;;;;;;;;;5.40;5.40;;;;;;;;4983856;27;45327;-72
2022/09/04 12:30:37;;;;;;;;;5.40;4.40;;;;;;;;4978934;28;45994;-71
2022/09/04 12:33:25;;;;;;;;;3.00;2.00;;;;;;;;4984621;28;47853;-71
2022/09/04 12:35:53;;;;;;;;;3.80;3.80;;;;;;;;4998811;27;45262;-71
2022/09/04 12:38:25;;;;;;;;;2.20;2.20;;;;;;;;4988782;27;45700;-71
2022/09/04 12:40:50;;;;;;;;;3.40;3.40;;;;;;;;4982026;27;45947;-71
2022/09/04 12:43:27;;;;;;;;;4.00;3.50;;;;;;;;4988765;27;45449;-70
2022/09/04 12:46:02;;;;;;;;;4.20;4.20;;;;;;;;4986365;27;45418;-70
2022/09/04 12:48:55;;;;;;;;;3.00;2.00;;;;;;;;4989178;27;45407;-71
2022/09/04 12:51:25;;;;;;;;;3.20;3.20;;;;;;;;4977865;28;45486;-71
2022/09/04 12:54:02;;;;;;;;;5.00;3.40;;;;;;;;4980691;27;47741;-71
2022/09/04 12:56:27;;;;;;;;;4.80;3.60;;;;;;;;4985727;27;45527;-71
2022/09/04 12:58:52;;;;;;;;;6.00;4.00;;;;;;;;4985784;28;45899;-70
2022/09/04 13:01:37;;;;;;;;;4.00;2.25;;;;;;;;4987648;27;46637;-70
2022/09/04 13:04:08;;;;;;;;;3.00;3.00;;;;;;;;4987975;27;46535;-70
2022/09/04 13:06:36;;;;;;;;;3.20;3.20;;;;;;;;4983694;28;45362;-70
2022/09/04 13:09:07;;;;;;;;;3.20;2.80;;;;;;;;4990479;27;46236;-71
2022/09/04 13:11:32;;;;;;;;;3.80;3.80;;;;;;;;4996008;27;45577;-70
2022/09/04 13:14:16;;;;;;;;;2.50;2.50;;;;;;;;4988495;27;45524;-70
2022/09/04 13:16:48;;;;;;;;;3.80;3.80;;;;;;;;4990655;27;45334;-70
2022/09/04 13:19:16;;;;;;;;;3.80;3.80;;;;;;;;4988223;27;45893;-71
2022/09/04 13:21:41;;;;;;;;;2.00;2.00;;;;;;;;4988159;28;45339;-69
2022/09/04 13:24:24;;;;;;;;;4.25;3.25;;;;;;;;4981699;28;46652;-71
2022/09/04 13:26:55;;;;;;;;;5.00;3.20;;;;;;;;4986876;27;45371;-71
2022/09/04 13:29:28;;;;;;;;;3.00;3.00;;;;;;;;4981782;28;45554;-71
2022/09/04 13:31:53;;;;;;;;;5.00;4.00;;;;;;;;4985384;27;45730;-70
2022/09/04 13:34:40;;;;;;;;;4.00;3.25;;;;;;;;5008000;27;46091;-71
2022/09/04 13:37:25;;;;;;;;;2.60;2.40;;;;;;;;4987934;27;45342;-72
2022/09/04 13:39:54;;;;;;;;;4.20;3.20;;;;;;;;4990871;27;45506;-70
2022/09/04 13:42:23;;;;;;;;;3.20;3.20;;;;;;;;4984513;27;45417;-71
2022/09/04 13:44:54;;;;;;;;;0.00;0.00;;;;;;;;4984120;27;49035;-71
2022/09/04 13:47:23;;;;;;;;;5.00;2.40;;;;;;;;4991234;28;45521;-70
2022/09/04 13:49:55;;;;;;;;;4.60;4.60;;;;;;;;4985501;28;45398;-72
2022/09/04 13:52:27;;;;;;;;;4.00;3.00;;;;;;;;4994412;27;46566;-72
2022/09/04 13:55:05;;;;;;;;;3.40;3.40;;;;;;;;4984951;27;45476;-72
2022/09/04 13:57:38;;;;;;;;;6.00;3.20;;;;;;;;4992461;27;45217;-73
2022/09/04 14:00:06;;;;;;;;;4.00;1.00;;;;;;;;4982818;27;45756;-73
2022/09/04 14:02:35;;;;;;;;;3.20;3.20;;;;;;;;4982724;27;45444;-73
2022/09/04 14:05:04;;;;;;;;;3.80;3.80;;;;;;;;4981074;28;46245;-73
2022/09/04 14:07:32;;;;;;;;;4.00;4.00;;;;;;;;4988829;28;45315;-73
2022/09/04 14:09:59;;;;;;;;;3.20;3.20;;;;;;;;4983111;27;45410;-72
2022/09/04 14:12:48;;;;;;;;;3.80;3.80;;;;;;;;4992163;28;45434;-72
2022/09/04 14:15:13;;;;;;;;;5.20;5.00;;;;;;;;4973778;27;46082;-72
2022/09/04 14:17:54;;;;;;;;;3.75;3.75;;;;;;;;4992614;28;45205;-72
2022/09/04 14:20:22;;;;;;;;;4.40;3.20;;;;;;;;4985153;27;45318;-72
2022/09/04 14:23:11;;;;;;;;;3.20;3.20;;;;;;;;4978105;28;45285;-72
2022/09/04 14:25:36;;;;;;;;;2.00;2.00;;;;;;;;4993579;28;45492;-72
2022/09/04 14:28:22;;;;;;;;;2.00;2.00;;;;;;;;4983954;27;45379;-72
2022/09/04 14:30:50;;;;;;;;;2.80;2.80;;;;;;;;4995885;27;45631;-72
2022/09/04 14:33:27;;;;;;;;;4.00;3.40;;;;;;;;4988167;27;45508;-72
2022/09/04 14:36:06;;;;;;;;;4.60;4.00;;;;;;;;4996959;27;45433;-72
2022/09/04 14:38:34;;;;;;;;;4.00;4.00;;;;;;;;4987896;27;45313;-72
2022/09/04 14:41:12;;;;;;;;;2.60;2.60;;;;;;;;4983042;28;45516;-72
2022/09/04 14:44:02;;;;;;;;;3.40;3.40;;;;;;;;4982412;28;45284;-72
2022/09/04 14:46:46;;;;;;;;;1.20;1.20;;;;;;;;4988216;27;47090;-72
2022/09/04 14:49:16;;;;;;;;;2.80;2.40;;;;;;;;4983556;28;45220;-72
2022/09/04 14:51:45;;;;;;;;;3.20;3.20;;;;;;;;4988899;28;45379;-72
2022/09/04 14:54:25;;;;;;;;;1.60;1.60;;;;;;;;4985890;28;45441;-72
2022/09/04 14:56:54;;;;;;;;;2.00;2.00;;;;;;;;4989408;28;45985;-72
2022/09/04 14:59:27;;;;;;;;;3.20;3.20;;;;;;;;4982644;28;45447;-72
2022/09/04 15:02:14;;;;;;;;;2.60;2.60;;;;;;;;4977332;28;45319;-72
2022/09/04 15:04:45;;;;;;;;;2.00;2.00;;;;;;;;4980768;27;45506;-72
2022/09/04 15:07:43;;;;;;;;;3.20;3.00;;;;;;;;4996574;27;45476;-72
2022/09/04 15:10:14;;;;;;;;;3.40;2.40;;;;;;;;4983129;27;45588;-72
2022/09/04 15:12:43;;;;;;;;;3.60;2.60;;;;;;;;4994445;27;45349;-72
2022/09/04 15:15:14;;;;;;;;;2.20;2.20;;;;;;;;4986053;27;45191;-72
2022/09/04 15:17:47;;;;;;;;;2.20;2.20;;;;;;;;4988038;28;46458;-72
2022/09/04 15:20:19;;;;;;;;;2.00;2.00;;;;;;;;4987781;27;45253;-72
2022/09/04 15:22:47;;;;;;;;;4.40;2.20;;;;;;;;4995683;27;45470;-72
2022/09/04 15:25:31;;;;;;;;;4.00;4.00;;;;;;;;4980230;27;45591;-72
2022/09/04 15:28:02;;;;;;;;;3.20;2.60;;;;;;;;4989634;27;46066;-72
2022/09/04 15:30:29;;;;;;;;;3.00;2.00;;;;;;;;4986788;27;45433;-72